createdAt,value
2018-12-17T00:00:45.827Z,82.20
2018-12-17T00:03:16.921Z,82.10
2018-12-17T00:05:47.880Z,82.20
2018-12-17T00:08:18.864Z,82.20
2018-12-17T00:10:47.913Z,82.20
2018-12-17T00:13:16.921Z,82.20
2018-12-17T00:15:46.326Z,82.30
2018-12-17T00:18:16.560Z,82.30
2018-12-17T00:20:45.627Z,82.40
2018-12-17T00:23:14.684Z,82.40
2018-12-17T00:25:45.763Z,82.40
2018-12-17T00:28:14.793Z,82.40
2018-12-17T00:30:43.823Z,82.40
2018-12-17T00:33:12.912Z,82.50
2018-12-17T00:35:41.971Z,82.70
2018-12-17T00:38:10.934Z,82.80
2018-12-17T00:40:39.927Z,82.70
2018-12-17T00:43:08.998Z,82.70
2018-12-17T00:45:38.030Z,82.70
2018-12-17T00:48:07.043Z,82.70
2018-12-17T00:50:36.098Z,82.60
2018-12-17T00:53:05.111Z,82.60
2018-12-17T00:55:34.177Z,82.50
2018-12-17T00:58:03.217Z,82.30
2018-12-17T01:00:32.208Z,82.30
2018-12-17T01:03:01.356Z,82.30
2018-12-17T01:05:30.313Z,82.30
2018-12-17T01:07:59.325Z,82.50
2018-12-17T01:10:28.551Z,82.30
2018-12-17T01:12:57.607Z,82.60
2018-12-17T01:15:26.611Z,82.60
2018-12-17T01:17:55.694Z,82.70
2018-12-17T01:20:24.799Z,82.70
2018-12-17T01:22:53.783Z,82.60
2018-12-17T01:25:22.811Z,82.60
2018-12-17T01:27:51.961Z,82.60
2018-12-17T01:30:21.027Z,82.60
2018-12-17T01:32:50.160Z,82.60
2018-12-17T01:35:19.343Z,82.60
2018-12-17T01:37:48.370Z,82.60
2018-12-17T01:40:17.326Z,82.50
2018-12-17T01:42:46.327Z,82.50
2018-12-17T01:45:15.337Z,82.50
2018-12-17T01:47:44.335Z,82.60
2018-12-17T01:50:13.398Z,82.70
2018-12-17T01:52:42.451Z,82.70
2018-12-17T01:55:11.509Z,82.70
2018-12-17T01:57:40.598Z,82.70
2018-12-17T02:00:09.917Z,82.90
2018-12-17T02:02:39.101Z,83.00
2018-12-17T02:05:08.160Z,83.00
2018-12-17T02:07:37.232Z,82.90
2018-12-17T02:10:06.296Z,82.70
2018-12-17T02:12:36.425Z,82.60
2018-12-17T02:15:05.726Z,82.60
2018-12-17T02:17:34.763Z,82.60
2018-12-17T02:20:04.284Z,82.70
2018-12-17T02:22:33.658Z,82.70
2018-12-17T02:25:02.893Z,83.50
2018-12-17T02:27:32.048Z,82.70
2018-12-17T02:30:01.077Z,82.80
2018-12-17T02:32:32.152Z,82.70
2018-12-17T02:35:01.254Z,82.80
2018-12-17T02:37:30.484Z,82.70
2018-12-17T02:39:59.829Z,82.80
2018-12-17T02:42:28.873Z,82.90
2018-12-17T02:44:58.006Z,83.00
2018-12-17T02:47:27.072Z,82.90
2018-12-17T02:49:56.226Z,82.90
2018-12-17T02:52:25.247Z,83.00
2018-12-17T02:54:54.321Z,83.00
2018-12-17T02:57:23.374Z,83.00
2018-12-17T02:59:52.441Z,82.90
2018-12-17T03:02:21.508Z,82.90
2018-12-17T03:04:50.530Z,83.00
2018-12-17T03:07:19.588Z,83.00
2018-12-17T03:09:48.648Z,83.00
2018-12-17T03:12:17.680Z,83.10
2018-12-17T03:14:46.794Z,83.10
2018-12-17T03:17:15.813Z,83.00
2018-12-17T03:19:44.864Z,83.00
2018-12-17T03:22:14.908Z,82.90
2018-12-17T03:24:43.981Z,83.00
2018-12-17T03:27:13.007Z,83.00
2018-12-17T03:29:42.212Z,83.00
2018-12-17T03:32:11.225Z,83.90
2018-12-17T03:34:40.248Z,83.10
2018-12-17T03:37:09.316Z,83.00
2018-12-17T03:39:38.377Z,83.10
2018-12-17T03:42:07.806Z,83.00
2018-12-17T03:44:37.143Z,83.10
2018-12-17T03:47:06.323Z,83.10
2018-12-17T03:49:35.489Z,83.10
2018-12-17T03:52:04.573Z,83.10
2018-12-17T03:54:33.653Z,83.00
2018-12-17T03:57:02.724Z,82.90
2018-12-17T03:59:31.892Z,83.00
2018-12-17T04:02:00.929Z,82.90
2018-12-17T04:04:29.961Z,82.90
2018-12-17T04:06:59.174Z,83.00
2018-12-17T04:09:28.289Z,83.10
2018-12-17T04:11:57.618Z,83.10
2018-12-17T04:14:26.795Z,83.20
2018-12-17T04:16:56.251Z,83.20
2018-12-17T04:19:25.365Z,83.20
2018-12-17T04:21:54.473Z,83.20
2018-12-17T04:24:23.549Z,83.20
2018-12-17T04:26:52.608Z,83.20
2018-12-17T04:29:21.661Z,83.10
2018-12-17T04:31:50.947Z,83.10
2018-12-17T04:34:20.061Z,83.10
2018-12-17T04:36:49.258Z,82.90
2018-12-17T04:39:18.435Z,82.90
2018-12-17T04:41:47.679Z,83.10
2018-12-17T04:44:16.782Z,83.10
2018-12-17T04:46:45.840Z,83.10
2018-12-17T04:49:14.856Z,83.20
2018-12-17T04:51:43.888Z,83.30
2018-12-17T04:54:12.922Z,83.30
2018-12-17T04:56:41.996Z,83.50
2018-12-17T04:59:14.539Z,83.50
2018-12-17T05:01:42.033Z,83.40
2018-12-17T05:04:11.115Z,83.40
2018-12-17T05:06:40.267Z,83.40
2018-12-17T05:09:09.544Z,83.40
2018-12-17T05:11:38.539Z,83.50
2018-12-17T05:14:07.526Z,83.50
2018-12-17T05:16:36.584Z,83.60
2018-12-17T05:19:05.679Z,83.60
2018-12-17T05:21:34.739Z,83.60
2018-12-17T05:24:03.929Z,83.60
2018-12-17T05:26:32.986Z,83.70
2018-12-17T05:29:02.083Z,83.70
2018-12-17T05:31:31.136Z,83.70
2018-12-17T05:34:01.285Z,83.80
2018-12-17T05:36:30.323Z,83.80
2018-12-17T05:38:59.398Z,83.70
2018-12-17T05:41:28.540Z,83.80
2018-12-17T05:43:57.696Z,83.90
2018-12-17T05:46:26.769Z,83.90
2018-12-17T05:48:55.854Z,84.00
2018-12-17T05:51:24.841Z,84.00
2018-12-17T05:53:53.950Z,84.00
2018-12-17T05:56:23.091Z,84.10
2018-12-17T05:58:52.164Z,84.20
2018-12-17T06:01:21.275Z,84.40
2018-12-17T06:03:50.403Z,85.20
2018-12-17T06:06:19.486Z,84.70
2018-12-17T06:08:48.533Z,84.50
2018-12-17T06:11:17.605Z,84.50
2018-12-17T06:13:46.683Z,84.50
2018-12-17T06:16:15.917Z,84.70
2018-12-17T06:18:44.984Z,84.70
2018-12-17T06:21:14.115Z,84.70
2018-12-17T06:23:43.120Z,84.70
2018-12-17T06:26:12.173Z,85.00
2018-12-17T06:28:41.319Z,85.00
2018-12-17T06:31:10.455Z,85.00
2018-12-17T06:33:39.485Z,85.20
2018-12-17T06:36:08.622Z,85.30
2018-12-17T06:38:37.699Z,85.30
2018-12-17T06:41:06.729Z,85.30
2018-12-17T06:43:35.786Z,85.30
2018-12-17T06:46:04.865Z,85.20
2018-12-17T06:48:33.930Z,85.20
2018-12-17T06:51:02.925Z,85.20
2018-12-17T06:53:32.018Z,85.10
2018-12-17T06:56:01.083Z,85.20
2018-12-17T06:58:31.073Z,85.20
2018-12-17T07:01:00.194Z,85.30
2018-12-17T07:03:29.185Z,85.30
2018-12-17T07:05:58.313Z,85.40
2018-12-17T07:08:27.541Z,85.50
2018-12-17T07:10:56.573Z,85.40
2018-12-17T07:13:25.663Z,85.40
2018-12-17T07:15:54.837Z,85.30
2018-12-17T07:18:24.159Z,85.40
2018-12-17T07:20:53.316Z,85.40
2018-12-17T07:23:22.731Z,85.40
2018-12-17T07:25:51.807Z,85.20
2018-12-17T07:28:20.837Z,85.20
2018-12-17T07:30:49.863Z,85.30
2018-12-17T07:33:18.920Z,85.40
2018-12-17T07:35:47.947Z,85.20
2018-12-17T07:38:17.005Z,85.10
2018-12-17T07:40:46.021Z,85.00
2018-12-17T07:43:16.101Z,85.10
2018-12-17T07:45:45.133Z,85.20
2018-12-17T07:48:14.282Z,85.20
2018-12-17T07:50:43.341Z,85.20
2018-12-17T07:53:12.408Z,85.20
2018-12-17T07:55:41.479Z,85.10
2018-12-17T07:58:11.053Z,85.30
2018-12-17T08:00:40.174Z,85.20
2018-12-17T08:03:09.179Z,85.10
2018-12-17T08:05:38.275Z,85.20
2018-12-17T08:08:07.345Z,85.20
2018-12-17T08:10:36.446Z,85.10
2018-12-17T08:13:05.687Z,85.00
2018-12-17T08:15:34.800Z,85.00
2018-12-17T08:18:15.106Z,85.10
2018-12-17T08:20:44.238Z,84.80
2018-12-17T08:23:13.271Z,84.80
2018-12-17T08:25:42.312Z,85.00
2018-12-17T08:28:11.401Z,84.90
2018-12-17T08:30:40.471Z,84.90
2018-12-17T08:33:09.626Z,84.90
2018-12-17T08:35:38.607Z,84.70
2018-12-17T08:38:07.685Z,84.60
2018-12-17T08:40:36.781Z,84.50
2018-12-17T08:43:05.802Z,84.30
2018-12-17T08:45:34.881Z,84.50
2018-12-17T08:48:03.988Z,84.50
2018-12-17T08:50:33.057Z,84.50
2018-12-17T08:53:02.101Z,84.20
2018-12-17T08:55:31.216Z,84.10
2018-12-17T08:58:00.445Z,84.00
2018-12-17T09:00:29.616Z,83.60
2018-12-17T09:02:58.657Z,83.70
2018-12-17T09:05:27.592Z,83.60
2018-12-17T09:07:56.717Z,83.30
2018-12-17T09:10:26.882Z,83.10
2018-12-17T09:12:56.005Z,82.90
2018-12-17T09:15:25.066Z,83.10
2018-12-17T09:17:54.139Z,83.10
2018-12-17T09:20:23.309Z,82.80
2018-12-17T09:22:52.528Z,83.00
2018-12-17T09:25:22.730Z,82.90
2018-12-17T09:27:51.728Z,82.70
2018-12-17T09:30:20.806Z,82.30
2018-12-17T09:32:50.315Z,82.50
2018-12-17T09:35:19.293Z,82.60
2018-12-17T09:37:48.461Z,81.80
2018-12-17T09:40:18.069Z,82.10
2018-12-17T09:42:47.157Z,82.00
2018-12-17T09:45:16.277Z,82.10
2018-12-17T09:47:45.707Z,82.40
2018-12-17T09:50:16.624Z,82.40
2018-12-17T09:52:46.141Z,82.00
2018-12-17T09:55:15.340Z,81.70
2018-12-17T09:57:45.486Z,81.40
2018-12-17T10:00:14.725Z,82.10
2018-12-17T10:02:43.873Z,82.40
2018-12-17T10:05:12.995Z,82.40
2018-12-17T10:07:42.223Z,82.30
2018-12-17T10:10:11.353Z,81.90
2018-12-17T10:12:40.711Z,81.70
2018-12-17T10:15:09.906Z,81.50
2018-12-17T10:17:39.080Z,81.40
2018-12-17T10:20:08.144Z,81.40
2018-12-17T10:22:37.260Z,80.40
2018-12-17T10:25:06.495Z,81.00
2018-12-17T10:27:36.642Z,81.20
2018-12-17T10:30:06.715Z,81.30
2018-12-17T10:32:36.220Z,81.30
2018-12-17T10:35:05.602Z,81.10
2018-12-17T10:37:34.561Z,81.10
2018-12-17T10:40:04.345Z,80.80
2018-12-17T10:42:33.273Z,81.00
2018-12-17T10:45:02.298Z,80.40
2018-12-17T10:47:31.463Z,79.70
2018-12-17T10:50:00.497Z,79.80
2018-12-17T10:52:29.546Z,79.60
2018-12-17T10:54:59.428Z,79.40
2018-12-17T10:57:28.646Z,79.40
2018-12-17T10:59:57.617Z,79.50
2018-12-17T11:02:34.076Z,79.50
2018-12-17T11:05:09.673Z,79.70
2018-12-17T11:07:38.776Z,80.00
2018-12-17T11:10:08.871Z,80.30
2018-12-17T11:12:38.223Z,80.40
2018-12-17T11:15:09.592Z,80.40
2018-12-17T11:17:38.940Z,80.30
2018-12-17T11:20:09.870Z,81.10
2018-12-17T11:22:39.455Z,80.20
2018-12-17T11:25:08.548Z,80.40
2018-12-17T11:27:37.619Z,80.00
2018-12-17T11:30:09.466Z,80.00
2018-12-17T11:32:43.535Z,79.80
2018-12-17T11:35:13.125Z,79.90
2018-12-17T11:37:42.256Z,80.20
2018-12-17T11:40:11.399Z,80.20
2018-12-17T11:42:40.385Z,79.90
2018-12-17T11:45:09.411Z,80.90
2018-12-17T11:47:39.083Z,80.50
2018-12-17T11:50:08.584Z,80.60
2018-12-17T11:52:38.008Z,80.30
2018-12-17T11:55:07.247Z,80.20
2018-12-17T11:57:49.392Z,79.60
2018-12-17T12:00:21.208Z,79.30
2018-12-17T12:02:50.245Z,78.90
2018-12-17T12:05:19.271Z,78.30
2018-12-17T12:07:48.260Z,78.00
2018-12-17T12:10:17.239Z,78.10
2018-12-17T12:12:46.333Z,78.00
2018-12-17T12:15:15.373Z,78.00
2018-12-17T12:17:44.479Z,78.10
2018-12-17T12:20:13.534Z,78.10
2018-12-17T12:22:42.577Z,78.40
2018-12-17T12:25:11.585Z,78.40
2018-12-17T12:27:40.653Z,78.30
2018-12-17T12:30:10.925Z,77.90
2018-12-17T12:32:40.084Z,77.80
2018-12-17T12:35:10.682Z,77.70
2018-12-17T12:37:39.725Z,77.70
2018-12-17T12:40:09.618Z,77.90
2018-12-17T12:42:38.652Z,78.00
2018-12-17T12:45:08.103Z,78.00
2018-12-17T12:47:37.136Z,78.00
2018-12-17T12:50:07.336Z,78.10
2018-12-17T12:52:36.746Z,78.40
2018-12-17T12:55:06.302Z,78.10
2018-12-17T12:57:35.425Z,78.30
2018-12-17T13:00:07.530Z,78.20
2018-12-17T13:02:36.979Z,78.10
2018-12-17T13:05:06.450Z,78.00
2018-12-17T13:07:35.423Z,77.90
2018-12-17T13:10:07.686Z,77.80
2018-12-17T13:12:36.806Z,77.70
2018-12-17T13:15:07.394Z,77.80
2018-12-17T13:17:36.670Z,77.90
2018-12-17T13:20:07.623Z,78.00
2018-12-17T13:22:36.812Z,77.90
2018-12-17T13:25:08.611Z,77.90
2018-12-17T13:27:37.603Z,78.00
2018-12-17T13:30:08.892Z,78.00
2018-12-17T13:32:38.147Z,78.00
2018-12-17T13:35:08.339Z,77.90
2018-12-17T13:37:37.386Z,77.90
2018-12-17T13:40:08.714Z,77.90
2018-12-17T13:42:37.707Z,77.90
2018-12-17T13:45:06.868Z,77.90
2018-12-17T13:47:35.986Z,77.90
2018-12-17T13:50:10.625Z,77.80
2018-12-17T13:52:45.929Z,77.80
2018-12-17T13:55:16.004Z,77.80
2018-12-17T13:57:45.063Z,77.80
2018-12-17T14:00:14.277Z,77.70
2018-12-17T14:02:43.342Z,78.50
2018-12-17T14:05:12.414Z,77.50
2018-12-17T14:07:41.560Z,77.50
2018-12-17T14:10:16.524Z,77.70
2018-12-17T14:12:45.586Z,77.70
2018-12-17T14:15:14.636Z,77.80
2018-12-17T14:17:47.646Z,77.90
2018-12-17T14:20:22.177Z,77.80
2018-12-17T14:22:52.253Z,77.80
2018-12-17T14:25:21.295Z,77.70
2018-12-17T14:27:50.299Z,77.90
2018-12-17T14:30:19.414Z,78.00
2018-12-17T14:32:48.563Z,77.90
2018-12-17T14:35:17.547Z,77.80
2018-12-17T14:37:51.915Z,77.80
2018-12-17T14:40:20.949Z,77.70
2018-12-17T14:42:49.939Z,77.80
2018-12-17T14:45:18.920Z,77.90
2018-12-17T14:47:48.125Z,77.90
2018-12-17T14:50:17.155Z,77.70
2018-12-17T14:52:47.398Z,77.90
2018-12-17T14:55:16.448Z,78.00
2018-12-17T14:57:45.461Z,78.00
2018-12-17T15:00:14.576Z,77.90
2018-12-17T15:02:43.596Z,77.70
2018-12-17T15:05:12.757Z,78.00
2018-12-17T15:07:41.735Z,77.80
2018-12-17T15:10:10.758Z,77.70
2018-12-17T15:12:39.835Z,77.70
2018-12-17T15:15:10.192Z,77.80
2018-12-17T15:17:39.479Z,77.90
2018-12-17T15:20:09.204Z,78.10
2018-12-17T15:22:38.183Z,78.00
2018-12-17T15:25:08.278Z,77.90
2018-12-17T15:27:37.354Z,77.80
2018-12-17T15:30:06.765Z,77.80
2018-12-17T15:32:35.863Z,77.80
2018-12-17T15:35:05.409Z,77.80
2018-12-17T15:37:34.451Z,77.80
2018-12-17T15:40:03.687Z,77.90
2018-12-17T15:42:32.651Z,78.00
2018-12-17T15:45:01.649Z,78.10
2018-12-17T15:47:30.679Z,78.30
2018-12-17T15:49:59.848Z,78.30
2018-12-17T15:52:28.823Z,78.50
2018-12-17T15:54:57.932Z,78.50
2018-12-17T15:57:26.965Z,78.50
2018-12-17T15:59:56.046Z,78.60
2018-12-17T16:02:25.266Z,78.60
2018-12-17T16:04:54.479Z,78.70
2018-12-17T16:07:23.543Z,78.70
2018-12-17T16:09:56.037Z,78.70
2018-12-17T16:12:25.348Z,78.80
2018-12-17T16:15:00.939Z,78.90
2018-12-17T16:17:29.966Z,78.90
2018-12-17T16:19:58.955Z,78.90
2018-12-17T16:22:27.973Z,78.90
2018-12-17T16:24:57.143Z,78.90
2018-12-17T16:27:26.108Z,79.10
2018-12-17T16:29:55.133Z,79.20
2018-12-17T16:32:24.269Z,79.30
2018-12-17T16:34:53.288Z,79.40
2018-12-17T16:37:22.280Z,79.30
2018-12-17T16:39:51.252Z,79.30
2018-12-17T16:42:20.364Z,79.30
2018-12-17T16:44:49.455Z,79.50
2018-12-17T16:47:18.403Z,79.60
2018-12-17T16:49:47.437Z,79.60
2018-12-17T16:52:16.438Z,79.70
2018-12-17T16:54:45.408Z,79.70
2018-12-17T16:57:14.446Z,79.80
2018-12-17T16:59:43.552Z,79.70
2018-12-17T17:02:12.629Z,80.60
2018-12-17T17:04:41.634Z,79.90
2018-12-17T17:07:10.737Z,80.00
2018-12-17T17:09:39.823Z,80.00
2018-12-17T17:12:09.121Z,80.00
2018-12-17T17:14:38.230Z,80.20
2018-12-17T17:17:07.216Z,80.00
2018-12-17T17:19:36.248Z,80.20
2018-12-17T17:22:05.269Z,80.30
2018-12-17T17:24:34.359Z,80.30
2018-12-17T17:27:03.454Z,80.40
2018-12-17T17:29:32.654Z,80.40
2018-12-17T17:32:01.722Z,80.60
2018-12-17T17:34:31.882Z,80.70
2018-12-17T17:37:00.989Z,80.70
2018-12-17T17:39:30.007Z,80.70
2018-12-17T17:41:59.088Z,80.80
2018-12-17T17:44:28.171Z,80.80
2018-12-17T17:46:57.296Z,80.80
2018-12-17T17:49:26.347Z,80.80
2018-12-17T17:51:55.358Z,80.90
2018-12-17T17:54:24.407Z,80.90
2018-12-17T17:56:53.386Z,81.00
2018-12-17T17:59:22.585Z,81.00
2018-12-17T18:01:51.685Z,81.00
2018-12-17T18:04:20.677Z,81.10
2018-12-17T18:06:49.698Z,81.10
2018-12-17T18:09:18.808Z,81.10
2018-12-17T18:11:47.883Z,81.10
2018-12-17T18:14:16.948Z,80.60
2018-12-17T18:16:45.954Z,81.20
2018-12-17T18:19:14.908Z,81.20
2018-12-17T18:21:44.004Z,81.30
2018-12-17T18:24:13.052Z,81.50
2018-12-17T18:26:42.053Z,81.50
2018-12-17T18:29:11.169Z,81.50
2018-12-17T18:31:40.243Z,81.60
2018-12-17T18:34:09.260Z,81.80
2018-12-17T18:36:38.239Z,82.00
2018-12-17T18:39:08.669Z,82.20
2018-12-17T18:41:39.773Z,82.50
2018-12-17T18:44:08.757Z,82.70
2018-12-17T18:46:37.737Z,82.60
2018-12-17T18:49:06.717Z,82.50
2018-12-17T18:51:36.117Z,82.40
2018-12-17T18:54:05.233Z,82.40
2018-12-17T18:56:34.239Z,82.50
2018-12-17T18:59:03.362Z,82.50
2018-12-17T19:01:32.444Z,82.60
2018-12-17T19:04:01.447Z,82.60
2018-12-17T19:06:31.579Z,82.60
2018-12-17T19:09:00.578Z,82.70
2018-12-17T19:11:31.616Z,82.70
2018-12-17T19:14:00.627Z,82.90
2018-12-17T19:16:29.737Z,83.00
2018-12-17T19:18:58.789Z,82.80
2018-12-17T19:21:27.763Z,82.90
2018-12-17T19:23:56.980Z,83.20
2018-12-17T19:26:25.995Z,83.00
2018-12-17T19:28:54.945Z,83.10
2018-12-17T19:31:23.955Z,83.30
2018-12-17T19:33:52.964Z,83.30
2018-12-17T19:36:21.996Z,83.50
2018-12-17T19:38:51.037Z,83.60
2018-12-17T19:41:20.031Z,83.70
2018-12-17T19:43:49.084Z,83.80
2018-12-17T19:46:18.179Z,84.00
2018-12-17T19:48:47.288Z,84.10
2018-12-17T19:51:16.237Z,84.20
2018-12-17T19:53:45.350Z,84.30
2018-12-17T19:56:14.384Z,84.30
2018-12-17T19:58:43.496Z,84.30
2018-12-17T20:01:12.592Z,84.50
2018-12-17T20:03:41.524Z,85.30
2018-12-17T20:06:10.532Z,84.70
2018-12-17T20:08:39.511Z,84.70
2018-12-17T20:11:08.611Z,84.90
2018-12-17T20:13:37.800Z,85.00
2018-12-17T20:16:06.897Z,85.10
2018-12-17T20:18:35.919Z,85.10
2018-12-17T20:21:04.968Z,85.30
2018-12-17T20:23:33.960Z,85.40
2018-12-17T20:26:03.098Z,85.60
2018-12-17T20:28:32.103Z,85.70
2018-12-17T20:31:01.161Z,85.80
2018-12-17T20:33:30.274Z,86.00
2018-12-17T20:35:59.347Z,86.90
2018-12-17T20:38:28.394Z,86.20
2018-12-17T20:40:57.430Z,86.20
2018-12-17T20:43:26.478Z,86.00
2018-12-17T20:45:55.534Z,86.50
2018-12-17T20:48:24.494Z,85.80
2018-12-17T20:50:53.449Z,85.60
2018-12-17T20:53:22.479Z,85.70
2018-12-17T20:55:51.471Z,85.60
2018-12-17T20:58:20.501Z,85.80
2018-12-17T21:00:49.526Z,85.80
2018-12-17T21:03:18.561Z,85.80
2018-12-17T21:05:48.116Z,85.90
2018-12-17T21:08:17.495Z,85.90
2018-12-17T21:10:46.623Z,85.70
2018-12-17T21:13:15.701Z,85.60
2018-12-17T21:15:44.787Z,85.60
2018-12-17T21:18:14.010Z,85.50
2018-12-17T21:20:43.012Z,85.30
2018-12-17T21:23:12.224Z,85.30
2018-12-17T21:25:41.371Z,85.30
2018-12-17T21:28:10.576Z,85.30
2018-12-17T21:30:39.604Z,85.30
2018-12-17T21:33:08.645Z,85.40
2018-12-17T21:35:38.740Z,85.60
2018-12-17T21:38:07.818Z,85.70
2018-12-17T21:40:37.010Z,85.70
2018-12-17T21:43:06.017Z,85.70
2018-12-17T21:45:35.017Z,85.70
2018-12-17T21:48:04.168Z,85.80
2018-12-17T21:50:33.446Z,85.80
2018-12-17T21:53:02.480Z,85.80
2018-12-17T21:55:31.544Z,85.80
2018-12-17T21:58:00.891Z,85.90
2018-12-17T22:00:31.208Z,86.00
2018-12-17T22:03:00.306Z,86.10
2018-12-17T22:05:29.411Z,86.20
2018-12-17T22:07:58.673Z,86.40
2018-12-17T22:10:31.897Z,86.50
2018-12-17T22:13:01.060Z,86.70
2018-12-17T22:15:30.403Z,86.70
2018-12-17T22:17:59.463Z,86.70
2018-12-17T22:20:28.696Z,86.80
2018-12-17T22:22:58.953Z,86.80
2018-12-17T22:25:29.232Z,87.70
2018-12-17T22:27:58.528Z,86.80
2018-12-17T22:30:27.719Z,86.90
2018-12-17T22:32:56.744Z,87.00
2018-12-17T22:35:25.943Z,86.90
2018-12-17T22:37:55.111Z,87.00
2018-12-17T22:40:24.300Z,87.00
2018-12-17T22:42:53.465Z,87.00
2018-12-17T22:45:22.490Z,86.70
2018-12-17T22:47:51.608Z,86.60
2018-12-17T22:50:20.604Z,86.40
2018-12-17T22:52:49.776Z,86.40
2018-12-17T22:55:19.377Z,86.30
2018-12-17T22:57:48.360Z,86.20
2018-12-17T23:00:17.414Z,86.00
2018-12-17T23:02:48.533Z,86.10
2018-12-17T23:05:17.610Z,86.80
2018-12-17T23:07:46.759Z,86.10
2018-12-17T23:10:27.064Z,86.10
2018-12-17T23:13:07.289Z,86.10
2018-12-17T23:15:47.490Z,86.00
2018-12-17T23:18:15.505Z,85.80
2018-12-17T23:20:46.535Z,86.10
2018-12-17T23:23:17.652Z,86.00
2018-12-17T23:25:48.634Z,86.10
2018-12-17T23:28:17.784Z,86.20
2018-12-17T23:30:46.861Z,86.20
2018-12-17T23:33:16.054Z,86.10
2018-12-17T23:35:45.225Z,86.00
2018-12-17T23:38:14.214Z,86.00
2018-12-17T23:40:43.215Z,86.00
2018-12-17T23:43:12.230Z,86.00
2018-12-17T23:45:41.341Z,86.00
2018-12-17T23:48:10.410Z,85.90
2018-12-17T23:50:39.530Z,86.70
2018-12-17T23:53:08.565Z,85.90
2018-12-17T23:55:37.551Z,85.90
2018-12-17T23:58:06.683Z,85.90
